createdAt,value
2019-04-26T12:17:16.273Z,8.10
2019-04-26T12:19:48.188Z,8.35
2019-04-26T12:22:17.734Z,7.58
2019-04-26T12:24:47.869Z,6.33
2019-04-26T12:27:17.973Z,7.12
2019-04-26T12:29:48.159Z,6.62
2019-04-26T12:32:19.331Z,8.53
2019-04-26T12:34:49.283Z,5.95
2019-04-26T12:37:20.919Z,7.62
2019-04-26T12:39:50.620Z,7.50
2019-04-26T12:42:20.864Z,6.95
2019-04-26T12:45:12.164Z,7.25
2019-04-26T12:47:54.123Z,7.47
2019-04-26T12:50:24.061Z,7.08
2019-04-26T12:52:55.859Z,6.90
2019-04-26T12:55:26.154Z,8.38
2019-04-26T12:57:56.037Z,9.50
2019-04-26T13:00:27.496Z,9.00
2019-04-26T13:02:58.453Z,8.85
2019-04-26T13:05:28.468Z,9.83
2019-04-26T13:07:58.418Z,10.55
2019-04-26T13:10:44.810Z,11.48
2019-04-26T13:13:17.974Z,12.00
2019-04-26T13:15:54.925Z,11.90
2019-04-26T13:18:24.752Z,12.55
2019-04-26T13:20:54.567Z,12.40
2019-04-26T13:23:25.325Z,12.13
2019-04-26T13:25:59.654Z,11.45
2019-04-26T13:28:27.330Z,12.88
2019-04-26T13:30:57.218Z,12.15
2019-04-26T13:33:27.928Z,13.83
2019-04-26T13:36:05.639Z,13.08
2019-04-26T13:38:29.977Z,12.63
2019-04-26T13:41:04.608Z,12.73
2019-04-26T13:43:31.531Z,12.90
2019-04-26T13:46:11.941Z,13.43
2019-04-26T13:48:45.317Z,13.48
2019-04-26T13:51:16.693Z,13.53
2019-04-26T13:53:46.577Z,13.15
2019-04-26T13:56:16.529Z,13.60
2019-04-26T13:58:46.445Z,12.80
2019-04-26T14:01:18.702Z,13.95
2019-04-26T14:03:47.787Z,14.15
2019-04-26T14:06:18.032Z,12.15
2019-04-26T14:08:47.866Z,11.93
2019-04-26T14:11:20.556Z,13.83
2019-04-26T14:13:49.568Z,13.22
2019-04-26T14:16:21.168Z,13.45
2019-04-26T14:18:50.959Z,12.55
2019-04-26T14:21:22.451Z,13.20
2019-04-26T14:24:10.202Z,12.78
2019-04-26T14:26:41.732Z,11.85
2019-04-26T14:29:11.640Z,12.45
2019-04-26T14:31:43.163Z,12.20
2019-04-26T14:34:14.469Z,11.65
2019-04-26T14:36:44.297Z,12.75
2019-04-26T14:39:17.500Z,12.20
2019-04-26T14:41:45.865Z,11.33
2019-04-26T14:44:16.186Z,11.78
2019-04-26T14:46:49.057Z,11.95
2019-04-26T14:49:19.135Z,10.95
2019-04-26T14:51:51.289Z,10.85
2019-04-26T14:54:21.031Z,8.98
2019-04-26T14:56:52.277Z,8.68
2019-04-26T14:59:44.394Z,8.45
2019-04-26T15:02:29.838Z,7.20
2019-04-26T15:05:18.061Z,7.67
2019-04-26T15:07:51.116Z,7.53
2019-04-26T15:10:21.143Z,6.10
2019-04-26T15:12:56.694Z,5.60
2019-04-26T15:15:26.891Z,5.28
2019-04-26T15:17:59.498Z,6.20
2019-04-26T15:20:26.057Z,5.35
2019-04-26T15:22:56.268Z,5.30
2019-04-26T15:25:26.212Z,5.40
2019-04-26T15:27:56.156Z,5.70
2019-04-26T15:30:26.025Z,5.58
2019-04-26T15:33:15.503Z,5.12
2019-04-26T15:35:46.189Z,5.58
2019-04-26T15:38:15.998Z,4.83
2019-04-26T15:40:52.822Z,4.90
2019-04-26T15:43:24.038Z,4.37
2019-04-26T15:46:14.178Z,4.03
2019-04-26T15:48:50.362Z,4.47
2019-04-26T15:51:20.228Z,4.65
2019-04-26T15:53:53.062Z,3.98
2019-04-26T15:56:23.359Z,5.10
2019-04-26T15:58:53.181Z,4.45
2019-04-26T16:01:23.051Z,4.47
2019-04-26T16:03:53.275Z,4.08
2019-04-26T16:06:23.643Z,4.10
2019-04-26T16:08:53.538Z,4.10
2019-04-26T16:11:23.410Z,4.17
2019-04-26T16:13:55.416Z,3.87
2019-04-26T16:16:28.982Z,4.28
2019-04-26T16:18:57.295Z,3.95
2019-04-26T16:21:27.422Z,3.70
2019-04-26T16:23:57.217Z,4.15
2019-04-26T16:26:27.090Z,3.67
2019-04-26T16:29:04.399Z,3.87
2019-04-26T16:31:42.146Z,3.75
2019-04-26T16:34:11.843Z,4.20
2019-04-26T16:36:45.131Z,4.28
2019-04-26T16:39:14.102Z,3.25
2019-04-26T16:41:43.985Z,3.70
2019-04-26T16:44:13.866Z,3.42
2019-04-26T16:46:44.062Z,3.67
2019-04-26T16:49:15.113Z,3.95
2019-04-26T16:51:45.182Z,4.28
2019-04-26T16:54:21.044Z,3.80
2019-04-26T16:56:46.516Z,3.47
2019-04-26T16:59:22.542Z,2.85
2019-04-26T17:01:48.113Z,2.77
2019-04-26T17:06:49.488Z,2.77
2019-04-26T17:09:19.305Z,3.30
2019-04-26T17:09:41.876Z,3.20
2019-04-26T17:11:49.544Z,2.60
2019-04-26T17:14:22.298Z,3.27
2019-04-26T17:16:53.037Z,2.87
2019-04-26T17:19:22.838Z,2.65
2019-04-26T17:22:01.737Z,2.65
2019-04-26T17:24:34.176Z,3.12
2019-04-26T17:27:09.546Z,2.43
2019-04-26T17:29:37.478Z,3.17
2019-04-26T17:32:09.020Z,3.25
2019-04-26T17:34:40.542Z,2.70
2019-04-26T17:37:16.497Z,3.15
2019-04-26T17:39:42.137Z,2.58
2019-04-26T17:42:12.969Z,2.62
2019-04-26T17:44:42.877Z,2.87
2019-04-26T17:47:12.828Z,2.52
2019-04-26T17:49:44.020Z,3.20
2019-04-26T17:52:13.921Z,3.45
2019-04-26T17:54:48.840Z,2.72
2019-04-26T17:57:15.156Z,2.65
2019-04-26T17:59:49.019Z,3.10
2019-04-26T18:02:25.722Z,3.08
2019-04-26T18:04:59.018Z,2.85
2019-04-26T18:07:39.821Z,2.40
2019-04-26T18:09:57.035Z,2.55
2019-04-26T18:12:24.544Z,2.67
2019-04-26T18:14:54.413Z,2.90
2019-04-26T18:17:32.566Z,2.50
2019-04-26T18:20:20.610Z,3.05
2019-04-26T18:22:52.058Z,2.65
2019-04-26T18:25:23.450Z,2.30
2019-04-26T18:27:53.606Z,2.30
2019-04-26T18:30:24.286Z,3.25
2019-04-26T18:32:54.513Z,2.92
2019-04-26T18:35:24.375Z,2.58
2019-04-26T18:37:54.207Z,3.05
2019-04-26T18:40:24.116Z,3.12
2019-04-26T18:42:55.094Z,2.72
2019-04-26T18:45:29.697Z,2.52
2019-04-26T18:48:01.483Z,2.58
2019-04-26T18:50:32.734Z,2.40
2019-04-26T18:53:14.181Z,2.72
2019-04-26T18:55:45.724Z,1.82
2019-04-26T18:58:15.865Z,2.65
2019-04-26T19:00:45.734Z,2.37
2019-04-26T19:03:16.045Z,2.00
2019-04-26T19:05:46.233Z,2.40
2019-04-26T19:08:16.160Z,2.10
2019-04-26T19:10:58.052Z,2.90
2019-04-26T19:13:36.736Z,2.65
2019-04-26T19:16:25.269Z,1.65
2019-04-26T19:19:05.756Z,2.00
2019-04-26T19:21:46.747Z,2.40
2019-04-26T19:24:19.581Z,2.35
2019-04-26T19:26:49.726Z,2.15
2019-04-26T19:29:27.040Z,1.90
2019-04-26T19:31:52.249Z,2.12
2019-04-26T19:34:26.119Z,2.00
2019-04-26T19:36:56.310Z,1.62
2019-04-26T19:39:31.935Z,1.90
2019-04-26T19:41:57.941Z,1.95
2019-04-26T19:44:28.557Z,2.00
2019-04-26T19:47:03.220Z,1.75
2019-04-26T19:49:36.796Z,2.10
2019-04-26T19:52:22.050Z,1.77
2019-04-26T19:54:56.369Z,1.90
2019-04-26T19:57:42.158Z,2.42
2019-04-26T20:00:13.005Z,1.52
2019-04-26T20:02:42.906Z,1.45
2019-04-26T20:05:13.162Z,1.98
2019-04-26T20:07:43.041Z,1.70
2019-04-26T20:10:12.958Z,1.55
2019-04-26T20:12:43.079Z,1.70
2019-04-26T20:15:25.338Z,1.70
2019-04-26T20:17:44.821Z,1.22
2019-04-26T20:20:19.421Z,1.35
2019-04-26T20:22:46.226Z,2.17
2019-04-26T20:25:16.661Z,1.37
2019-04-26T20:27:46.561Z,1.70
2019-04-26T20:30:27.620Z,2.42
2019-04-26T20:32:56.442Z,1.62
2019-04-26T20:35:28.742Z,1.57
2019-04-26T20:38:01.080Z,1.40
2019-04-26T20:40:30.065Z,1.98
2019-04-26T20:43:05.625Z,1.90
2019-04-26T20:45:39.850Z,1.17
2019-04-26T20:48:03.064Z,1.30
2019-04-26T20:50:36.464Z,1.70
2019-04-26T20:53:04.418Z,1.85
2019-04-26T20:55:34.698Z,2.87
2019-04-26T20:58:08.305Z,3.08
2019-04-26T21:00:37.646Z,2.60
2019-04-26T21:03:21.013Z,2.72
2019-04-26T21:05:46.363Z,2.08
2019-04-26T21:08:12.423Z,2.55
2019-04-26T21:10:42.456Z,2.45
2019-04-26T21:13:12.469Z,2.20
2019-04-26T21:15:54.622Z,2.70
2019-04-26T21:18:13.763Z,3.70
2019-04-26T21:20:43.578Z,2.55
2019-04-26T21:23:15.386Z,1.60
2019-04-26T21:25:49.734Z,3.00
2019-04-26T21:28:38.147Z,2.15
2019-04-26T21:31:18.417Z,2.30
2019-04-26T21:33:53.552Z,2.10
2019-04-26T21:36:43.823Z,2.58
2019-04-26T21:39:19.509Z,2.02
2019-04-26T21:41:51.078Z,1.95
2019-04-26T21:44:20.881Z,2.45
2019-04-26T21:46:56.104Z,1.75
2019-04-26T21:49:24.235Z,2.40
2019-04-26T21:51:54.324Z,1.65
2019-04-26T21:54:25.220Z,1.50
2019-04-26T21:56:55.807Z,1.90
2019-04-26T21:59:25.573Z,2.00
2019-04-26T22:01:59.113Z,1.77
2019-04-26T22:04:28.727Z,1.85
2019-04-26T22:06:59.887Z,1.62
2019-04-26T22:09:47.653Z,1.75
2019-04-26T22:12:18.700Z,2.00
2019-04-26T22:14:50.791Z,1.90
2019-04-26T22:17:24.296Z,2.12
2019-04-26T22:20:18.534Z,1.60
2019-04-26T22:22:53.050Z,1.50
2019-04-26T22:25:25.662Z,1.55
2019-04-26T22:28:00.308Z,1.57
2019-04-26T22:30:29.590Z,1.15
2019-04-26T22:32:59.581Z,1.32
2019-04-26T22:35:29.526Z,1.35
2019-04-26T22:37:59.330Z,1.40
2019-04-26T22:40:29.203Z,1.60
2019-04-26T22:43:00.803Z,1.30
2019-04-26T22:45:35.001Z,1.42
2019-04-26T22:48:11.645Z,1.60
2019-04-26T22:50:40.823Z,1.35
2019-04-26T22:53:12.001Z,1.47
2019-04-26T22:55:43.621Z,1.30
2019-04-26T22:58:13.594Z,1.17
2019-04-26T23:00:43.692Z,1.65
2019-04-26T23:03:14.762Z,1.20
2019-04-26T23:05:44.679Z,1.32
2019-04-26T23:08:14.649Z,1.35
2019-04-26T23:10:46.558Z,1.27
2019-04-26T23:13:18.110Z,1.30
2019-04-26T23:16:11.085Z,1.30
2019-04-26T23:18:43.886Z,1.22
2019-04-26T23:21:15.012Z,1.17
2019-04-26T23:23:46.466Z,1.32
2019-04-26T23:26:16.262Z,1.10
2019-04-26T23:28:46.053Z,1.15
2019-04-26T23:31:16.211Z,1.37
2019-04-26T23:33:46.102Z,1.65
2019-04-26T23:36:18.298Z,1.10
2019-04-26T23:38:47.510Z,1.17
2019-04-26T23:41:17.709Z,1.27
2019-04-26T23:43:47.531Z,1.12
2019-04-26T23:46:18.776Z,0.93
2019-04-26T23:48:49.779Z,1.40
2019-04-26T23:51:19.667Z,0.93
2019-04-26T23:53:50.538Z,1.37
2019-04-26T23:56:23.527Z,1.65
2019-04-26T23:58:53.169Z,1.10
